sensor_id;sensor_type;location;lat;lon;timestamp;pressure;altitude;pressure_sealevel;temperature;humidity
596;BME280;19946;49.306;11.350;2022-09-20T00:01:37;96693.09;;;6.67;100.00
596;BME280;19946;49.306;11.350;2022-09-20T00:04:37;96687.41;;;6.62;100.00
596;BME280;19946;49.306;11.350;2022-09-20T00:07:38;96683.22;;;6.73;100.00
596;BME280;19946;49.306;11.350;2022-09-20T00:10:38;96686.47;;;6.63;100.00
596;BME280;19946;49.306;11.350;2022-09-20T00:13:39;96680.84;;;6.57;100.00
596;BME280;19946;49.306;11.350;2022-09-20T00:16:39;96687.09;;;6.53;100.00
596;BME280;19946;49.306;11.350;2022-09-20T00:19:40;96682.72;;;6.41;100.00
596;BME280;19946;49.306;11.350;2022-09-20T00:22:40;96692.09;;;6.42;100.00
596;BME280;19946;49.306;11.350;2022-09-20T00:25:41;96685.22;;;6.43;100.00
596;BME280;19946;49.306;11.350;2022-09-20T00:28:42;96686.53;;;6.36;100.00
596;BME280;19946;49.306;11.350;2022-09-20T00:31:43;96695.78;;;6.38;100.00
596;BME280;19946;49.306;11.350;2022-09-20T00:34:43;96681.72;;;6.44;100.00
596;BME280;19946;49.306;11.350;2022-09-20T00:38:02;96684.56;;;6.39;100.00
596;BME280;19946;49.306;11.350;2022-09-20T00:41:02;96685.31;;;6.41;100.00
596;BME280;19946;49.306;11.350;2022-09-20T00:48:12;96685.34;;;6.54;100.00
596;BME280;19946;49.306;11.350;2022-09-20T00:51:17;96684.91;;;6.47;100.00
596;BME280;19946;49.306;11.350;2022-09-20T00:54:21;96680.06;;;6.43;100.00
596;BME280;19946;49.306;11.350;2022-09-20T00:57:23;96679.56;;;6.50;100.00
596;BME280;19946;49.306;11.350;2022-09-20T01:00:25;96679.78;;;6.47;100.00
596;BME280;19946;49.306;11.350;2022-09-20T01:03:28;96680.84;;;6.57;100.00
596;BME280;19946;49.306;11.350;2022-09-20T01:06:30;96676.59;;;6.56;100.00
596;BME280;19946;49.306;11.350;2022-09-20T01:09:33;96677.22;;;6.60;100.00
596;BME280;19946;49.306;11.350;2022-09-20T01:12:33;96677.00;;;6.63;100.00
596;BME280;19946;49.306;11.350;2022-09-20T01:15:36;96679.59;;;6.63;100.00
596;BME280;19946;49.306;11.350;2022-09-20T01:18:38;96684.53;;;6.66;100.00
596;BME280;19946;49.306;11.350;2022-09-20T01:21:40;96685.38;;;6.67;100.00
596;BME280;19946;49.306;11.350;2022-09-20T01:24:48;96686.72;;;6.59;100.00
596;BME280;19946;49.306;11.350;2022-09-20T01:27:51;96687.22;;;6.65;100.00
596;BME280;19946;49.306;11.350;2022-09-20T01:34:13;96683.31;;;6.72;100.00
596;BME280;19946;49.306;11.350;2022-09-20T01:37:29;96682.09;;;6.77;100.00
596;BME280;19946;49.306;11.350;2022-09-20T01:47:15;96680.66;;;6.86;100.00
596;BME280;19946;49.306;11.350;2022-09-20T01:50:33;96674.28;;;6.79;100.00
596;BME280;19946;49.306;11.350;2022-09-20T01:57:03;96676.72;;;6.68;100.00
596;BME280;19946;49.306;11.350;2022-09-20T02:00:19;96671.59;;;6.68;100.00
596;BME280;19946;49.306;11.350;2022-09-20T02:10:24;96679.59;;;6.63;100.00
596;BME280;19946;49.306;11.350;2022-09-20T02:16:45;96676.75;;;6.80;100.00
596;BME280;19946;49.306;11.350;2022-09-20T02:23:27;96686.56;;;6.61;100.00
596;BME280;19946;49.306;11.350;2022-09-20T02:26:56;96689.38;;;6.58;100.00
596;BME280;19946;49.306;11.350;2022-09-20T02:33:38;96689.91;;;6.76;100.00
596;BME280;19946;49.306;11.350;2022-09-20T02:40:07;96688.56;;;6.83;100.00
596;BME280;19946;49.306;11.350;2022-09-20T02:43:27;96689.91;;;6.76;100.00
596;BME280;19946;49.306;11.350;2022-09-20T02:50:07;96685.19;;;6.82;100.00
596;BME280;19946;49.306;11.350;2022-09-20T02:53:36;96687.34;;;6.76;100.00
596;BME280;19946;49.306;11.350;2022-09-20T02:56:46;96687.22;;;6.65;100.00
596;BME280;19946;49.306;11.350;2022-09-20T02:59:57;96684.03;;;6.74;100.00
596;BME280;19946;49.306;11.350;2022-09-20T03:03:50;96686.22;;;6.80;100.00
596;BME280;19946;49.306;11.350;2022-09-20T03:07:32;96674.63;;;6.60;100.00
596;BME280;19946;49.306;11.350;2022-09-20T03:14:00;96680.47;;;6.49;100.00
596;BME280;19946;49.306;11.350;2022-09-20T03:17:29;96686.66;;;6.47;100.00
596;BME280;19946;49.306;11.350;2022-09-20T03:20:50;96690.44;;;6.41;100.00
596;BME280;19946;49.306;11.350;2022-09-20T03:24:24;96685.91;;;6.32;100.00
596;BME280;19946;49.306;11.350;2022-09-20T03:30:53;96688.13;;;6.24;100.00
596;BME280;19946;49.306;11.350;2022-09-20T03:37:48;96691.22;;;6.29;100.00
596;BME280;19946;49.306;11.350;2022-09-20T03:41:06;96691.19;;;6.43;100.00
596;BME280;19946;49.306;11.350;2022-09-20T03:44:55;96685.75;;;6.48;100.00
596;BME280;19946;49.306;11.350;2022-09-20T03:58:18;96688.94;;;6.51;100.00
596;BME280;19946;49.306;11.350;2022-09-20T04:14:46;96697.81;;;6.73;100.00
596;BME280;19946;49.306;11.350;2022-09-20T04:18:08;96697.81;;;6.73;100.00
596;BME280;19946;49.306;11.350;2022-09-20T04:21:34;96700.84;;;6.79;100.00
596;BME280;19946;49.306;11.350;2022-09-20T04:27:53;96710.09;;;6.82;100.00
596;BME280;19946;49.306;11.350;2022-09-20T04:31:05;96706.41;;;6.86;100.00
596;BME280;19946;49.306;11.350;2022-09-20T04:34:34;96709.81;;;6.86;100.00
596;BME280;19946;49.306;11.350;2022-09-20T04:37:58;96718.03;;;6.79;100.00
596;BME280;19946;49.306;11.350;2022-09-20T04:41:11;96714.31;;;6.83;100.00
596;BME280;19946;49.306;11.350;2022-09-20T04:44:29;96713.41;;;6.84;100.00
596;BME280;19946;49.306;11.350;2022-09-20T05:04:59;96733.06;;;6.85;100.00
596;BME280;19946;49.306;11.350;2022-09-20T05:08:23;96738.84;;;6.88;100.00
596;BME280;19946;49.306;11.350;2022-09-20T05:15:42;96748.41;;;6.86;100.00
596;BME280;19946;49.306;11.350;2022-09-20T05:19:07;96745.28;;;6.69;100.00
596;BME280;19946;49.306;11.350;2022-09-20T05:22:39;96755.44;;;6.57;100.00
596;BME280;19946;49.306;11.350;2022-09-20T05:29:27;96750.16;;;6.46;100.00
596;BME280;19946;49.306;11.350;2022-09-20T05:36:30;96754.91;;;6.52;100.00
596;BME280;19946;49.306;11.350;2022-09-20T05:39:41;96762.44;;;6.55;100.00
596;BME280;19946;49.306;11.350;2022-09-20T05:42:55;96763.22;;;6.43;100.00
596;BME280;19946;49.306;11.350;2022-09-20T05:52:56;96765.91;;;6.81;100.00
596;BME280;19946;49.306;11.350;2022-09-20T05:56:17;96778.53;;;6.72;100.00
596;BME280;19946;49.306;11.350;2022-09-20T06:00:03;96773.31;;;6.86;100.00
596;BME280;19946;49.306;11.350;2022-09-20T06:03:05;96776.44;;;6.91;100.00
596;BME280;19946;49.306;11.350;2022-09-20T06:06:28;96783.63;;;6.86;100.00
596;BME280;19946;49.306;11.350;2022-09-20T06:13:37;96775.63;;;7.03;100.00
596;BME280;19946;49.306;11.350;2022-09-20T06:23:25;96777.41;;;7.15;100.00
596;BME280;19946;49.306;11.350;2022-09-20T06:26:33;96770.31;;;7.31;100.00
596;BME280;19946;49.306;11.350;2022-09-20T06:29:39;96774.63;;;7.18;100.00
596;BME280;19946;49.306;11.350;2022-09-20T06:32:57;96771.75;;;7.23;100.00
596;BME280;19946;49.306;11.350;2022-09-20T06:36:03;96768.63;;;7.05;100.00
596;BME280;19946;49.306;11.350;2022-09-20T06:39:46;96768.50;;;6.94;100.00
596;BME280;19946;49.306;11.350;2022-09-20T06:43:07;96766.84;;;6.93;100.00
596;BME280;19946;49.306;11.350;2022-09-20T06:46:09;96777.28;;;7.04;100.00
596;BME280;19946;49.306;11.350;2022-09-20T06:49:09;96774.97;;;6.87;100.00
596;BME280;19946;49.306;11.350;2022-09-20T06:52:13;96789.22;;;7.05;100.00
596;BME280;19946;49.306;11.350;2022-09-20T06:55:29;96783.06;;;7.08;100.00
596;BME280;19946;49.306;11.350;2022-09-20T06:58:31;96784.50;;;6.99;100.00
596;BME280;19946;49.306;11.350;2022-09-20T07:01:31;96782.09;;;6.96;100.00
596;BME280;19946;49.306;11.350;2022-09-20T07:04:31;96783.53;;;6.87;100.00
596;BME280;19946;49.306;11.350;2022-09-20T07:07:33;96777.97;;;6.81;100.00
596;BME280;19946;49.306;11.350;2022-09-20T07:10:33;96792.31;;;6.97;100.00
596;BME280;19946;49.306;11.350;2022-09-20T07:13:35;96787.97;;;6.98;100.00
596;BME280;19946;49.306;11.350;2022-09-20T07:16:37;96793.06;;;7.12;100.00
596;BME280;19946;49.306;11.350;2022-09-20T07:19:37;96797.94;;;7.29;100.00
596;BME280;19946;49.306;11.350;2022-09-20T07:22:37;96800.81;;;7.50;100.00
596;BME280;19946;49.306;11.350;2022-09-20T07:25:38;96791.25;;;7.78;100.00
596;BME280;19946;49.306;11.350;2022-09-20T07:28:38;96798.56;;;7.71;100.00
596;BME280;19946;49.306;11.350;2022-09-20T07:31:38;96797.53;;;7.48;100.00
596;BME280;19946;49.306;11.350;2022-09-20T07:34:39;96803.91;;;7.68;100.00
596;BME280;19946;49.306;11.350;2022-09-20T07:37:39;96810.31;;;7.75;100.00
596;BME280;19946;49.306;11.350;2022-09-20T07:40:42;96803.13;;;7.67;100.00
596;BME280;19946;49.306;11.350;2022-09-20T07:43:45;96804.09;;;8.03;100.00
596;BME280;19946;49.306;11.350;2022-09-20T07:49:50;96807.72;;;8.86;100.00
596;BME280;19946;49.306;11.350;2022-09-20T07:52:55;96800.28;;;8.82;100.00
596;BME280;19946;49.306;11.350;2022-09-20T07:55:59;96808.66;;;8.85;100.00
596;BME280;19946;49.306;11.350;2022-09-20T07:59:00;96808.53;;;8.63;100.00
596;BME280;19946;49.306;11.350;2022-09-20T08:02:01;96817.69;;;8.43;100.00
596;BME280;19946;49.306;11.350;2022-09-20T08:05:01;96829.75;;;8.30;100.00
596;BME280;19946;49.306;11.350;2022-09-20T08:08:02;96823.06;;;8.40;100.00
596;BME280;19946;49.306;11.350;2022-09-20T08:11:10;96813.72;;;8.50;100.00
596;BME280;19946;49.306;11.350;2022-09-20T08:14:14;96818.19;;;8.72;100.00
596;BME280;19946;49.306;11.350;2022-09-20T08:17:14;96820.81;;;8.59;100.00
596;BME280;19946;49.306;11.350;2022-09-20T08:20:15;96825.91;;;8.48;100.00
596;BME280;19946;49.306;11.350;2022-09-20T08:23:15;96826.44;;;8.53;100.00
596;BME280;19946;49.306;11.350;2022-09-20T08:26:18;96821.66;;;9.07;100.00
596;BME280;19946;49.306;11.350;2022-09-20T08:29:19;96814.72;;;9.43;100.00
596;BME280;19946;49.306;11.350;2022-09-20T08:32:19;96817.72;;;9.72;100.00
596;BME280;19946;49.306;11.350;2022-09-20T08:35:20;96817.91;;;9.58;100.00
596;BME280;19946;49.306;11.350;2022-09-20T08:38:21;96809.97;;;9.72;100.00
596;BME280;19946;49.306;11.350;2022-09-20T08:41:37;96821.13;;;9.72;100.00
596;BME280;19946;49.306;11.350;2022-09-20T08:45:00;96827.34;;;9.24;100.00
596;BME280;19946;49.306;11.350;2022-09-20T08:48:06;96826.53;;;9.69;100.00
596;BME280;19946;49.306;11.350;2022-09-20T08:51:11;96826.31;;;9.26;100.00
596;BME280;19946;49.306;11.350;2022-09-20T08:54:13;96831.44;;;9.50;100.00
596;BME280;19946;49.306;11.350;2022-09-20T08:57:17;96826.63;;;9.57;100.00
596;BME280;19946;49.306;11.350;2022-09-20T09:00:29;96830.59;;;9.49;100.00
596;BME280;19946;49.306;11.350;2022-09-20T09:03:31;96829.25;;;9.33;100.00
596;BME280;19946;49.306;11.350;2022-09-20T09:06:32;96840.63;;;9.19;100.00
596;BME280;19946;49.306;11.350;2022-09-20T09:09:38;96821.22;;;9.60;100.00
596;BME280;19946;49.306;11.350;2022-09-20T09:12:41;96821.31;;;9.47;100.00
596;BME280;19946;49.306;11.350;2022-09-20T09:15:50;96838.88;;;9.77;100.00
596;BME280;19946;49.306;11.350;2022-09-20T09:18:52;96828.72;;;9.63;100.00
596;BME280;19946;49.306;11.350;2022-09-20T09:22:00;96831.03;;;9.43;100.00
596;BME280;19946;49.306;11.350;2022-09-20T09:25:31;96827.03;;;9.28;100.00
596;BME280;19946;49.306;11.350;2022-09-20T09:28:33;96824.81;;;9.46;100.00
596;BME280;19946;49.306;11.350;2022-09-20T09:31:36;96823.53;;;9.40;100.00
596;BME280;19946;49.306;11.350;2022-09-20T09:34:38;96825.47;;;9.26;100.00
596;BME280;19946;49.306;11.350;2022-09-20T09:37:52;96818.84;;;9.10;100.00
596;BME280;19946;49.306;11.350;2022-09-20T09:40:57;96808.66;;;9.77;100.00
596;BME280;19946;49.306;11.350;2022-09-20T09:44:22;96817.06;;;10.26;100.00
596;BME280;19946;49.306;11.350;2022-09-20T09:47:26;96806.22;;;11.18;100.00
596;BME280;19946;49.306;11.350;2022-09-20T09:50:30;96815.72;;;10.96;100.00
596;BME280;19946;49.306;11.350;2022-09-20T09:53:31;96810.25;;;11.11;100.00
596;BME280;19946;49.306;11.350;2022-09-20T09:56:39;96807.75;;;12.13;100.00
596;BME280;19946;49.306;11.350;2022-09-20T09:59:58;96801.31;;;11.56;100.00
596;BME280;19946;49.306;11.350;2022-09-20T10:12:30;96806.72;;;11.12;100.00
596;BME280;19946;49.306;11.350;2022-09-20T10:15:53;96812.47;;;11.36;100.00
596;BME280;19946;49.306;11.350;2022-09-20T10:19:09;96803.56;;;11.29;100.00
596;BME280;19946;49.306;11.350;2022-09-20T10:22:30;96804.16;;;10.69;100.00
596;BME280;19946;49.306;11.350;2022-09-20T10:25:44;96803.03;;;11.46;100.00
596;BME280;19946;49.306;11.350;2022-09-20T10:29:00;96811.03;;;11.64;100.00
596;BME280;19946;49.306;11.350;2022-09-20T10:39:18;96814.66;;;9.89;100.00
596;BME280;19946;49.306;11.350;2022-09-20T10:42:40;96812.28;;;9.75;100.00
596;BME280;19946;49.306;11.350;2022-09-20T10:46:14;96816.50;;;9.65;100.00
596;BME280;19946;49.306;11.350;2022-09-20T10:49:26;96820.28;;;9.61;100.00
596;BME280;19946;49.306;11.350;2022-09-20T10:56:20;96822.19;;;9.81;100.00
596;BME280;19946;49.306;11.350;2022-09-20T11:02:42;96812.03;;;10.78;100.00
596;BME280;19946;49.306;11.350;2022-09-20T11:05:56;96809.47;;;10.67;100.00
596;BME280;19946;49.306;11.350;2022-09-20T11:09:02;96821.22;;;10.60;100.00
596;BME280;19946;49.306;11.350;2022-09-20T11:12:34;96826.81;;;10.44;100.00
596;BME280;19946;49.306;11.350;2022-09-20T11:15:48;96824.31;;;9.87;100.00
596;BME280;19946;49.306;11.350;2022-09-20T11:22:20;96823.81;;;9.71;100.00
596;BME280;19946;49.306;11.350;2022-09-20T11:25:36;96826.19;;;9.85;100.00
596;BME280;19946;49.306;11.350;2022-09-20T11:28:41;96831.31;;;10.85;100.00
596;BME280;19946;49.306;11.350;2022-09-20T11:31:45;96818.19;;;11.30;100.00
596;BME280;19946;49.306;11.350;2022-09-20T11:34:55;96822.78;;;11.47;100.00
596;BME280;19946;49.306;11.350;2022-09-20T11:38:14;96819.72;;;11.32;100.00
596;BME280;19946;49.306;11.350;2022-09-20T11:41:23;96830.38;;;10.75;100.00
596;BME280;19946;49.306;11.350;2022-09-20T11:44:25;96829.56;;;10.75;100.00
596;BME280;19946;49.306;11.350;2022-09-20T11:47:32;96823.88;;;10.38;100.00
596;BME280;19946;49.306;11.350;2022-09-20T11:57:30;96814.50;;;11.74;100.00
596;BME280;19946;49.306;11.350;2022-09-20T12:00:33;96809.06;;;12.28;100.00
596;BME280;19946;49.306;11.350;2022-09-20T12:03:37;96813.75;;;11.42;100.00
596;BME280;19946;49.306;11.350;2022-09-20T12:06:40;96808.00;;;10.85;100.00
596;BME280;19946;49.306;11.350;2022-09-20T12:09:43;96810.59;;;10.20;100.00
596;BME280;19946;49.306;11.350;2022-09-20T12:12:48;96808.66;;;9.88;100.00
596;BME280;19946;49.306;11.350;2022-09-20T12:16:00;96820.72;;;9.55;100.00
596;BME280;19946;49.306;11.350;2022-09-20T12:19:04;96814.13;;;9.39;100.00
596;BME280;19946;49.306;11.350;2022-09-20T12:25:32;96810.09;;;9.81;100.00
596;BME280;19946;49.306;11.350;2022-09-20T12:28:44;96809.59;;;9.87;100.00
596;BME280;19946;49.306;11.350;2022-09-20T12:31:48;96805.38;;;9.86;100.00
596;BME280;19946;49.306;11.350;2022-09-20T12:34:49;96804.56;;;10.08;100.00
596;BME280;19946;49.306;11.350;2022-09-20T12:37:51;96800.28;;;10.63;100.00
596;BME280;19946;49.306;11.350;2022-09-20T12:41:06;96796.56;;;11.41;100.00
596;BME280;19946;49.306;11.350;2022-09-20T12:44:27;96794.19;;;11.58;100.00
596;BME280;19946;49.306;11.350;2022-09-20T12:47:34;96803.09;;;11.35;100.00
596;BME280;19946;49.306;11.350;2022-09-20T12:50:35;96795.44;;;11.54;100.00
596;BME280;19946;49.306;11.350;2022-09-20T12:54:11;96787.81;;;12.14;100.00
596;BME280;19946;49.306;11.350;2022-09-20T12:57:23;96782.47;;;12.05;100.00
596;BME280;19946;49.306;11.350;2022-09-20T13:03:46;96783.78;;;12.30;100.00
596;BME280;19946;49.306;11.350;2022-09-20T13:06:47;96787.47;;;11.46;100.00
596;BME280;19946;49.306;11.350;2022-09-20T13:09:48;96793.84;;;11.42;100.00
596;BME280;19946;49.306;11.350;2022-09-20T13:12:56;96792.88;;;11.85;100.00
596;BME280;19946;49.306;11.350;2022-09-20T13:15:59;96803.94;;;12.07;100.00
596;BME280;19946;49.306;11.350;2022-09-20T13:22:33;96797.56;;;11.49;100.00
596;BME280;19946;49.306;11.350;2022-09-20T13:25:37;96796.75;;;11.28;100.00
596;BME280;19946;49.306;11.350;2022-09-20T13:28:48;96794.38;;;11.25;100.00
596;BME280;19946;49.306;11.350;2022-09-20T13:31:50;96782.69;;;11.51;100.00
596;BME280;19946;49.306;11.350;2022-09-20T13:35:09;96792.91;;;11.43;100.00
596;BME280;19946;49.306;11.350;2022-09-20T13:38:13;96789.16;;;11.57;100.00
596;BME280;19946;49.306;11.350;2022-09-20T13:41:19;96785.06;;;11.54;100.00
596;BME280;19946;49.306;11.350;2022-09-20T13:44:20;96785.19;;;11.53;100.00
596;BME280;19946;49.306;11.350;2022-09-20T13:47:21;96795.66;;;11.51;100.00
596;BME280;19946;49.306;11.350;2022-09-20T13:53:27;96788.13;;;11.48;100.00
596;BME280;19946;49.306;11.350;2022-09-20T13:56:30;96791.84;;;11.46;100.00
596;BME280;19946;49.306;11.350;2022-09-20T13:59:42;96787.38;;;11.16;100.00
596;BME280;19946;49.306;11.350;2022-09-20T14:02:47;96792.22;;;10.88;100.00
596;BME280;19946;49.306;11.350;2022-09-20T14:05:50;96792.44;;;10.85;100.00
596;BME280;19946;49.306;11.350;2022-09-20T14:08:52;96790.66;;;10.54;100.00
596;BME280;19946;49.306;11.350;2022-09-20T14:11:54;96788.00;;;10.76;100.00
596;BME280;19946;49.306;11.350;2022-09-20T14:14:55;96778.38;;;10.99;100.00
596;BME280;19946;49.306;11.350;2022-09-20T14:17:56;96785.19;;;11.32;100.00
596;BME280;19946;49.306;11.350;2022-09-20T14:20:57;96793.53;;;11.36;100.00
596;BME280;19946;49.306;11.350;2022-09-20T14:24:05;96787.19;;;11.28;100.00
596;BME280;19946;49.306;11.350;2022-09-20T14:27:20;96791.75;;;11.36;100.00
596;BME280;19946;49.306;11.350;2022-09-20T14:30:31;96788.97;;;11.28;100.00
596;BME280;19946;49.306;11.350;2022-09-20T14:33:32;96788.53;;;11.23;100.00
596;BME280;19946;49.306;11.350;2022-09-20T14:36:32;96788.66;;;11.21;100.00
596;BME280;19946;49.306;11.350;2022-09-20T14:39:35;96788.97;;;11.28;100.00
596;BME280;19946;49.306;11.350;2022-09-20T14:42:49;96793.91;;;11.31;100.00
596;BME280;19946;49.306;11.350;2022-09-20T14:45:54;96789.41;;;11.33;100.00
596;BME280;19946;49.306;11.350;2022-09-20T14:49:18;96792.63;;;11.25;100.00
596;BME280;19946;49.306;11.350;2022-09-20T14:55:25;96795.66;;;11.30;100.00
596;BME280;19946;49.306;11.350;2022-09-20T14:58:27;96791.44;;;11.29;100.00
596;BME280;19946;49.306;11.350;2022-09-20T15:01:28;96800.66;;;11.64;100.00
596;BME280;19946;49.306;11.350;2022-09-20T15:04:29;96790.81;;;11.79;100.00
596;BME280;19946;49.306;11.350;2022-09-20T15:07:35;96791.41;;;11.71;100.00
596;BME280;19946;49.306;11.350;2022-09-20T15:10:36;96790.84;;;11.26;100.00
596;BME280;19946;49.306;11.350;2022-09-20T15:13:36;96791.13;;;11.23;100.00
596;BME280;19946;49.306;11.350;2022-09-20T15:16:37;96799.09;;;11.31;100.00
596;BME280;19946;49.306;11.350;2022-09-20T15:19:37;96795.31;;;11.35;100.00
596;BME280;19946;49.306;11.350;2022-09-20T15:22:37;96800.56;;;11.45;100.00
596;BME280;19946;49.306;11.350;2022-09-20T15:25:38;96801.44;;;11.34;100.00
596;BME280;19946;49.306;11.350;2022-09-20T15:28:38;96807.22;;;11.47;100.00
596;BME280;19946;49.306;11.350;2022-09-20T15:31:39;96808.50;;;11.32;100.00
596;BME280;19946;49.306;11.350;2022-09-20T15:34:39;96818.03;;;10.79;100.00
596;BME280;19946;49.306;11.350;2022-09-20T15:37:40;96799.78;;;10.26;100.00
596;BME280;19946;49.306;11.350;2022-09-20T15:40:41;96803.75;;;10.30;100.00
596;BME280;19946;49.306;11.350;2022-09-20T15:43:42;96815.75;;;10.20;100.00
596;BME280;19946;49.306;11.350;2022-09-20T15:46:42;96823.06;;;10.37;100.00
596;BME280;19946;49.306;11.350;2022-09-20T15:49:43;96812.81;;;10.47;100.00
596;BME280;19946;49.306;11.350;2022-09-20T15:52:45;96811.50;;;10.30;100.00
596;BME280;19946;49.306;11.350;2022-09-20T15:55:50;96810.13;;;10.26;100.00
596;BME280;19946;49.306;11.350;2022-09-20T15:58:53;96816.66;;;9.85;100.00
596;BME280;19946;49.306;11.350;2022-09-20T16:02:00;96818.69;;;9.93;100.00
596;BME280;19946;49.306;11.350;2022-09-20T16:05:01;96821.63;;;10.00;100.00
596;BME280;19946;49.306;11.350;2022-09-20T16:08:02;96826.91;;;9.98;100.00
596;BME280;19946;49.306;11.350;2022-09-20T16:11:03;96834.91;;;9.84;100.00
596;BME280;19946;49.306;11.350;2022-09-20T16:14:04;96842.41;;;9.98;100.00
596;BME280;19946;49.306;11.350;2022-09-20T16:17:04;96847.38;;;10.01;100.00
596;BME280;19946;49.306;11.350;2022-09-20T16:20:05;96852.97;;;9.62;100.00
596;BME280;19946;49.306;11.350;2022-09-20T16:23:06;96861.75;;;9.24;100.00
596;BME280;19946;49.306;11.350;2022-09-20T16:26:07;96870.00;;;8.82;100.00
596;BME280;19946;49.306;11.350;2022-09-20T16:29:14;96872.41;;;9.20;100.00
596;BME280;19946;49.306;11.350;2022-09-20T16:32:15;96878.53;;;8.95;100.00
596;BME280;19946;49.306;11.350;2022-09-20T16:35:16;96887.53;;;8.89;100.00
596;BME280;19946;49.306;11.350;2022-09-20T16:38:16;96892.97;;;8.73;100.00
596;BME280;19946;49.306;11.350;2022-09-20T16:41:17;96886.75;;;8.39;100.00
596;BME280;19946;49.306;11.350;2022-09-20T16:44:18;96901.28;;;8.53;100.00
596;BME280;19946;49.306;11.350;2022-09-20T16:47:18;96906.44;;;8.53;100.00
596;BME280;19946;49.306;11.350;2022-09-20T16:50:24;96898.91;;;8.50;100.00
596;BME280;19946;49.306;11.350;2022-09-20T16:53:25;96903.53;;;8.45;100.00
596;BME280;19946;49.306;11.350;2022-09-20T16:56:27;96902.75;;;8.32;100.00
596;BME280;19946;49.306;11.350;2022-09-20T16:59:34;96905.31;;;8.19;100.00
596;BME280;19946;49.306;11.350;2022-09-20T17:02:35;96911.41;;;8.05;100.00
596;BME280;19946;49.306;11.350;2022-09-20T17:05:35;96910.38;;;7.95;100.00
596;BME280;19946;49.306;11.350;2022-09-20T17:08:37;96922.53;;;7.93;100.00
596;BME280;19946;49.306;11.350;2022-09-20T17:11:43;96918.81;;;7.85;100.00
596;BME280;19946;49.306;11.350;2022-09-20T17:14:45;96923.94;;;7.72;100.00
596;BME280;19946;49.306;11.350;2022-09-20T17:17:45;96924.38;;;7.66;100.00
596;BME280;19946;49.306;11.350;2022-09-20T17:20:45;96928.84;;;7.50;100.00
596;BME280;19946;49.306;11.350;2022-09-20T17:23:48;96933.06;;;7.51;100.00
596;BME280;19946;49.306;11.350;2022-09-20T17:26:49;96935.47;;;7.27;100.00
596;BME280;19946;49.306;11.350;2022-09-20T17:29:50;96946.78;;;6.97;100.00
596;BME280;19946;49.306;11.350;2022-09-20T17:32:51;96964.72;;;6.99;100.00
596;BME280;19946;49.306;11.350;2022-09-20T17:35:51;96973.25;;;7.14;100.00
596;BME280;19946;49.306;11.350;2022-09-20T17:38:54;96947.97;;;7.06;100.00
596;BME280;19946;49.306;11.350;2022-09-20T17:41:54;96973.28;;;7.26;100.00
596;BME280;19946;49.306;11.350;2022-09-20T17:44:55;96980.03;;;7.15;100.00
596;BME280;19946;49.306;11.350;2022-09-20T17:47:55;96978.03;;;7.06;100.00
596;BME280;19946;49.306;11.350;2022-09-20T17:50:56;96976.53;;;7.16;100.00
596;BME280;19946;49.306;11.350;2022-09-20T17:53:57;96974.25;;;7.11;100.00
596;BME280;19946;49.306;11.350;2022-09-20T17:56:57;96981.44;;;7.06;100.00
596;BME280;19946;49.306;11.350;2022-09-20T17:59:58;96980.44;;;6.94;100.00
596;BME280;19946;49.306;11.350;2022-09-20T18:02:58;96986.81;;;6.89;100.00
596;BME280;19946;49.306;11.350;2022-09-20T18:05:59;96974.88;;;6.74;100.00
596;BME280;19946;49.306;11.350;2022-09-20T18:09:12;96983.16;;;6.79;100.00
596;BME280;19946;49.306;11.350;2022-09-20T18:12:13;96978.34;;;6.73;100.00
596;BME280;19946;49.306;11.350;2022-09-20T18:15:13;96988.38;;;6.63;100.00
596;BME280;19946;49.306;11.350;2022-09-20T18:18:13;96983.88;;;6.52;100.00
596;BME280;19946;49.306;11.350;2022-09-20T18:21:15;96990.66;;;6.39;100.00
596;BME280;19946;49.306;11.350;2022-09-20T18:24:17;96987.28;;;6.39;100.00
596;BME280;19946;49.306;11.350;2022-09-20T18:27:17;96996.03;;;6.36;100.00
596;BME280;19946;49.306;11.350;2022-09-20T18:30:17;96994.50;;;6.18;100.00
596;BME280;19946;49.306;11.350;2022-09-20T18:33:19;96992.34;;;6.26;100.00
596;BME280;19946;49.306;11.350;2022-09-20T18:36:20;96998.94;;;6.16;100.00
596;BME280;19946;49.306;11.350;2022-09-20T18:39:25;97008.81;;;6.08;100.00
596;BME280;19946;49.306;11.350;2022-09-20T18:42:26;96996.03;;;6.06;100.00
596;BME280;19946;49.306;11.350;2022-09-20T18:45:26;97007.97;;;5.93;100.00
596;BME280;19946;49.306;11.350;2022-09-20T18:48:31;97008.13;;;5.90;100.00
596;BME280;19946;49.306;11.350;2022-09-20T18:51:32;97004.88;;;5.86;100.00
596;BME280;19946;49.306;11.350;2022-09-20T18:54:32;97004.97;;;5.85;100.00
596;BME280;19946;49.306;11.350;2022-09-20T18:57:33;97009.09;;;5.87;100.00
596;BME280;19946;49.306;11.350;2022-09-20T19:00:34;97010.53;;;5.77;100.00
596;BME280;19946;49.306;11.350;2022-09-20T19:10:48;97006.69;;;5.70;100.00
596;BME280;19946;49.306;11.350;2022-09-20T19:14:47;97023.22;;;5.50;100.00
596;BME280;19946;49.306;11.350;2022-09-20T19:17:20;97027.88;;;5.28;100.00
596;BME280;19946;49.306;11.350;2022-09-20T19:20:33;97034.53;;;5.31;100.00
596;BME280;19946;49.306;11.350;2022-09-20T19:24:08;97031.16;;;5.14;100.00
596;BME280;19946;49.306;11.350;2022-09-20T19:27:12;97042.19;;;5.17;100.00
596;BME280;19946;49.306;11.350;2022-09-20T19:30:14;97036.97;;;5.18;100.00
596;BME280;19946;49.306;11.350;2022-09-20T19:33:16;97038.13;;;5.12;100.00
596;BME280;19946;49.306;11.350;2022-09-20T19:36:17;97053.78;;;5.24;100.00
596;BME280;19946;49.306;11.350;2022-09-20T19:39:29;97053.38;;;5.16;100.00
596;BME280;19946;49.306;11.350;2022-09-20T19:46:08;97060.81;;;5.04;100.00
596;BME280;19946;49.306;11.350;2022-09-20T19:49:15;97066.09;;;5.01;100.00